Glory — V7EW3 — position and weather

sailwx.info

Track history (hours):
 
Tides and Currents Weather Stations Pressure Air Temp Water Temp Dewpoint Dewpoint Depression Visibility Wind Speed Wind Dir Waves Ship Positions

Glory

Last reported at 2018-Aug-14 23:11 UTC. Time now 2018-Aug-15 02:59 UTC.
Position N 31°05' E 122°33'.

Length 225 m; draft 7.1 m.

Type: Cargo ship. MMSI: 538005544.

Date/timePositionNaut miles runAvg speedWind from/ knotsBaromVisibWave heightAir tempDewpointWater temp
2018-Aug-14 23:11N 31°05' E 122°33'512.1
2018-Aug-14 22:48N 31°05' E 122°28'3 7.3
2018-Aug-14 22:25N 31°06' E 122°25'512.4
2018-Aug-14 22:00N 31°06' E 122°19'1014.3
2018-Aug-14 21:18N 31°12' E 122°09'514.8
2018-Aug-14 20:59N 31°14' E 122°04'714.9
2018-Aug-14 20:31N 31°15' E 121°56'712.6
2018-Aug-14 19:59N 31°17' E 121°49'8010.6
2018-Aug-14 12:25N 32°02' E 120°30'  
2018-Aug-11 16:05N 31°60' E 120°21'2 8.9
2018-Aug-11 15:52N 32°01' E 120°23'3 7.9
2018-Aug-11 15:31N 32°02' E 120°26'4 7.4
2018-Aug-11 14:59N 32°02' E 120°31'4 8.2
2018-Aug-11 14:30N 32°00' E 120°35'73 7.7
2018-Aug-11 04:59N 31°18' E 121°45'810.8
2018-Aug-11 04:17N 31°16' E 121°54'2310.4
2018-Aug-11 02:02N 31°06' E 122°19'111.4
2018-Aug-11 01:58N 31°06' E 122°20'611.1
2018-Aug-11 01:28N 31°07' E 122°26'4 9.7
2018-Aug-11 01:00N 31°07' E 122°31'4 7.3
2018-Aug-11 00:30N 31°07' E 122°36'6 0.6
2018-Aug-10 14:38N 31°13' E 122°39'0 0.2
2018-Aug-10 14:14N 31°13' E 122°39'0 0.0
2018-Aug-10 13:47N 31°13' E 122°39'  
2018-Aug-06 08:31N 31°20' E 122°36'012.0
2018-Aug-06 08:31N 31°20' E 122°36'  
Track history (hours):
 
Tides and Currents Weather Stations Pressure Air Temp Water Temp Dewpoint Dewpoint Depression Visibility Wind Speed Wind Dir Waves Ship Positions

Glory

Last reported at 2018-Aug-14 23:11 UTC. Time now 2018-Aug-15 02:59 UTC.
Position N 31°05' E 122°33'.

Length 225 m; draft 7.1 m.

Type: Cargo ship. MMSI: 538005544.

Date/timePositionNaut miles runAvg speedWind from/ knotsBaromVisibWave heightAir tempDewpointWater temp
2018-Aug-14 23:11N 31°05' E 122°33'512.1
2018-Aug-14 22:48N 31°05' E 122°28'3 7.3
2018-Aug-14 22:25N 31°06' E 122°25'512.4
2018-Aug-14 22:00N 31°06' E 122°19'1014.3
2018-Aug-14 21:18N 31°12' E 122°09'514.8
2018-Aug-14 20:59N 31°14' E 122°04'714.9
2018-Aug-14 20:31N 31°15' E 121°56'712.6
2018-Aug-14 19:59N 31°17' E 121°49'8010.6
2018-Aug-14 12:25N 32°02' E 120°30'  
2018-Aug-11 16:05N 31°60' E 120°21'2 8.9
2018-Aug-11 15:52N 32°01' E 120°23'3 7.9
2018-Aug-11 15:31N 32°02' E 120°26'4 7.4
2018-Aug-11 14:59N 32°02' E 120°31'4 8.2
2018-Aug-11 14:30N 32°00' E 120°35'73 7.7
2018-Aug-11 04:59N 31°18' E 121°45'810.8
2018-Aug-11 04:17N 31°16' E 121°54'2310.4
2018-Aug-11 02:02N 31°06' E 122°19'111.4
2018-Aug-11 01:58N 31°06' E 122°20'611.1
2018-Aug-11 01:28N 31°07' E 122°26'4 9.7
2018-Aug-11 01:00N 31°07' E 122°31'4 7.3
2018-Aug-11 00:30N 31°07' E 122°36'6 0.6
2018-Aug-10 14:38N 31°13' E 122°39'0 0.2
2018-Aug-10 14:14N 31°13' E 122°39'0 0.0
2018-Aug-10 13:47N 31°13' E 122°39'  
2018-Aug-06 08:31N 31°20' E 122°36'012.0
2018-Aug-06 08:31N 31°20' E 122°36'  

Dump ship's entire track history